createdAt,value
2019-05-17T00:00:23.203Z,78.50
2019-05-17T00:03:08.477Z,77.70
2019-05-17T00:05:47.631Z,78.70
2019-05-17T00:08:38.574Z,79.00
2019-05-17T00:11:24.254Z,78.30
2019-05-17T00:14:08.897Z,77.50
2019-05-17T00:16:57.115Z,77.40
2019-05-17T00:19:36.889Z,77.10
2019-05-17T00:22:16.716Z,77.90
2019-05-17T00:25:02.200Z,77.70
2019-05-17T00:27:47.420Z,77.10
2019-05-17T00:30:28.737Z,76.90
2019-05-17T00:33:16.767Z,76.70
2019-05-17T00:36:01.544Z,75.80
2019-05-17T00:38:50.664Z,75.80
2019-05-17T00:41:30.268Z,75.50
2019-05-17T00:44:10.886Z,75.90
2019-05-17T00:46:51.994Z,76.30
2019-05-17T00:49:32.155Z,77.40
2019-05-17T00:52:16.736Z,77.30
2019-05-17T00:55:01.521Z,76.60
2019-05-17T00:57:47.738Z,76.20
2019-05-17T01:00:27.838Z,76.60
2019-05-17T01:03:10.002Z,75.90
2019-05-17T01:05:52.171Z,76.10
2019-05-17T01:08:32.352Z,75.60
2019-05-17T01:11:13.598Z,75.20
2019-05-17T01:13:58.715Z,74.90
2019-05-17T01:16:41.029Z,74.80
2019-05-17T01:19:27.040Z,75.00
2019-05-17T01:22:18.881Z,75.40
2019-05-17T01:25:03.655Z,75.10
2019-05-17T01:27:47.248Z,75.10
2019-05-17T01:30:26.507Z,75.40
2019-05-17T01:33:12.761Z,75.90
2019-05-17T01:35:53.418Z,74.80
2019-05-17T01:38:37.724Z,73.90
2019-05-17T01:41:21.928Z,75.00
2019-05-17T01:44:07.630Z,74.30
2019-05-17T01:46:49.435Z,76.40
2019-05-17T01:49:32.940Z,75.30
2019-05-17T01:52:16.626Z,75.00
2019-05-17T01:54:57.827Z,74.90
2019-05-17T01:57:40.976Z,73.70
2019-05-17T02:00:19.232Z,75.50
2019-05-17T02:03:00.655Z,74.00
2019-05-17T02:05:44.296Z,73.80
2019-05-17T02:08:27.966Z,73.70
2019-05-17T02:11:07.773Z,73.70
2019-05-17T02:13:50.474Z,74.20
2019-05-17T02:16:33.286Z,72.80
2019-05-17T02:19:18.405Z,72.60
2019-05-17T02:22:00.877Z,72.40
2019-05-17T02:24:46.453Z,72.50
2019-05-17T02:27:28.997Z,71.70
2019-05-17T02:30:13.531Z,72.20
2019-05-17T02:32:55.013Z,72.30
2019-05-17T02:35:35.553Z,72.50
2019-05-17T02:38:17.560Z,72.30
2019-05-17T02:41:02.991Z,72.20
2019-05-17T02:43:43.792Z,72.00
2019-05-17T02:46:25.796Z,71.70
2019-05-17T02:49:07.866Z,72.50
2019-05-17T02:51:52.770Z,71.70
2019-05-17T02:54:35.899Z,72.60
2019-05-17T02:57:18.649Z,72.30
2019-05-17T03:00:04.276Z,71.00
2019-05-17T03:02:46.811Z,70.40
2019-05-17T03:05:28.276Z,71.60
2019-05-17T03:08:12.283Z,71.40
2019-05-17T03:10:53.957Z,71.10
2019-05-17T03:13:37.858Z,71.50
2019-05-17T03:16:23.650Z,70.70
2019-05-17T03:19:07.271Z,71.10
2019-05-17T03:21:53.318Z,70.90
2019-05-17T03:24:35.496Z,69.60
2019-05-17T03:27:23.089Z,69.50
2019-05-17T03:30:04.532Z,71.20
2019-05-17T03:32:48.145Z,70.30
2019-05-17T03:35:27.585Z,70.30
2019-05-17T03:38:14.080Z,70.10
2019-05-17T03:41:12.366Z,69.70
2019-05-17T03:43:41.262Z,70.30
2019-05-17T03:46:23.208Z,69.20
2019-05-17T03:49:06.947Z,69.00
2019-05-17T03:51:48.725Z,69.40
2019-05-17T03:54:32.450Z,69.10
2019-05-17T03:57:23.598Z,68.30
2019-05-17T04:00:05.110Z,67.00
2019-05-17T04:02:47.525Z,67.30
2019-05-17T04:05:33.470Z,66.40
2019-05-17T04:08:22.926Z,65.60
2019-05-17T04:11:21.174Z,65.40
2019-05-17T04:13:53.884Z,65.80
2019-05-17T04:16:38.026Z,65.80
2019-05-17T04:19:18.073Z,67.00
2019-05-17T04:21:58.630Z,66.30
2019-05-17T04:24:44.880Z,65.80
2019-05-17T04:27:28.200Z,65.70
2019-05-17T04:30:23.153Z,64.50
2019-05-17T04:33:03.928Z,65.10
2019-05-17T04:35:55.801Z,64.80
2019-05-17T04:38:35.939Z,63.90
2019-05-17T04:41:38.777Z,64.30
2019-05-17T04:44:06.909Z,64.40
2019-05-17T04:46:53.823Z,63.90
2019-05-17T04:49:34.547Z,64.30
2019-05-17T04:52:17.959Z,63.80
2019-05-17T04:55:03.667Z,63.30
2019-05-17T04:57:45.188Z,63.30
2019-05-17T05:00:28.359Z,63.50
2019-05-17T05:03:12.612Z,62.60
2019-05-17T05:05:53.891Z,62.80
2019-05-17T05:08:37.534Z,62.30
2019-05-17T05:11:32.583Z,62.10
2019-05-17T05:14:13.227Z,62.20
2019-05-17T05:16:55.308Z,62.20
2019-05-17T05:19:42.290Z,62.30
2019-05-17T05:22:32.997Z,62.10
2019-05-17T05:25:25.177Z,62.40
2019-05-17T05:28:06.754Z,61.60
2019-05-17T05:30:49.090Z,60.20
2019-05-17T05:33:33.005Z,60.70
2019-05-17T05:36:14.240Z,60.00
2019-05-17T05:39:02.203Z,59.70
2019-05-17T05:41:42.777Z,59.50
2019-05-17T05:44:29.133Z,59.70
2019-05-17T05:47:11.462Z,60.00
2019-05-17T05:50:04.361Z,60.70
2019-05-17T05:52:47.357Z,61.80
2019-05-17T05:55:31.962Z,61.70
2019-05-17T05:58:23.978Z,62.00
2019-05-17T06:01:12.560Z,62.00
2019-05-17T06:03:53.651Z,61.60
2019-05-17T06:06:33.397Z,62.20
2019-05-17T06:09:25.918Z,62.20
2019-05-17T06:12:23.625Z,62.10
2019-05-17T06:14:52.486Z,62.20
2019-05-17T06:17:39.682Z,61.90
2019-05-17T06:20:22.425Z,62.00
2019-05-17T06:23:05.281Z,62.50
2019-05-17T06:25:48.334Z,62.30
2019-05-17T06:28:31.922Z,63.20
2019-05-17T06:31:17.103Z,63.10
2019-05-17T06:33:58.338Z,63.20
2019-05-17T06:36:42.094Z,63.70
2019-05-17T06:39:24.554Z,63.60
2019-05-17T06:42:08.242Z,63.40
2019-05-17T06:44:52.393Z,64.00
2019-05-17T06:47:37.960Z,63.90
2019-05-17T06:50:23.650Z,64.60
2019-05-17T06:53:06.376Z,64.10
2019-05-17T06:55:53.468Z,63.70
2019-05-17T06:58:37.439Z,63.70
2019-05-17T07:01:20.040Z,63.80
2019-05-17T07:04:02.926Z,63.90
2019-05-17T07:06:49.946Z,64.30
2019-05-17T07:09:32.390Z,64.40
2019-05-17T07:12:14.075Z,64.20
2019-05-17T07:14:58.435Z,64.70
2019-05-17T07:17:41.328Z,65.40
2019-05-17T07:20:24.085Z,64.70
2019-05-17T07:23:11.001Z,64.00
2019-05-17T07:25:59.463Z,63.80
2019-05-17T07:28:40.448Z,63.50
2019-05-17T07:31:23.325Z,63.60
2019-05-17T07:34:02.335Z,63.50
2019-05-17T07:36:53.800Z,63.30
2019-05-17T07:39:34.807Z,64.10
2019-05-17T07:42:19.449Z,64.10
2019-05-17T07:45:00.500Z,64.20
2019-05-17T07:47:43.458Z,64.10
2019-05-17T07:50:24.595Z,64.30
2019-05-17T07:53:06.065Z,64.70
2019-05-17T07:55:46.337Z,64.60
2019-05-17T07:58:29.712Z,64.80
2019-05-17T08:01:12.243Z,65.10
2019-05-17T08:03:55.022Z,65.00
2019-05-17T08:06:36.988Z,65.40
2019-05-17T08:09:17.437Z,65.50
2019-05-17T08:11:59.732Z,66.00
2019-05-17T08:14:40.048Z,65.70
2019-05-17T08:17:20.212Z,65.80
2019-05-17T08:20:02.338Z,66.60
2019-05-17T08:22:44.421Z,66.10
2019-05-17T08:25:26.913Z,65.90
2019-05-17T08:28:11.049Z,66.10
2019-05-17T08:30:50.162Z,66.20
2019-05-17T08:33:29.772Z,67.00
2019-05-17T08:36:12.877Z,67.30
2019-05-17T08:38:53.773Z,67.10
2019-05-17T08:41:35.075Z,67.30
2019-05-17T08:44:16.362Z,67.90
2019-05-17T08:47:00.253Z,68.70
2019-05-17T08:49:44.071Z,68.50
2019-05-17T08:52:29.287Z,69.20
2019-05-17T08:55:09.693Z,70.20
2019-05-17T08:57:50.026Z,71.40
2019-05-17T09:00:31.340Z,71.60
2019-05-17T09:03:24.053Z,71.70
2019-05-17T09:05:54.438Z,72.20
2019-05-17T09:08:36.987Z,72.60
2019-05-17T09:11:21.423Z,72.30
2019-05-17T09:14:02.367Z,72.70
2019-05-17T09:16:42.610Z,73.00
2019-05-17T09:19:25.745Z,73.00
2019-05-17T09:22:10.530Z,73.40
2019-05-17T09:24:53.056Z,74.60
2019-05-17T09:27:36.125Z,74.80
2019-05-17T09:30:20.375Z,74.70
2019-05-17T09:33:10.975Z,75.00
2019-05-17T09:35:49.998Z,75.00
2019-05-17T09:38:36.623Z,74.90
2019-05-17T09:41:20.066Z,75.40
2019-05-17T09:44:13.004Z,75.90
2019-05-17T09:46:50.387Z,76.00
2019-05-17T09:49:32.407Z,76.00
2019-05-17T09:52:16.973Z,76.00
2019-05-17T09:55:00.459Z,75.70
2019-05-17T09:57:41.008Z,75.70
2019-05-17T10:00:22.409Z,75.60
2019-05-17T10:03:04.421Z,75.60
2019-05-17T10:06:01.300Z,75.90
2019-05-17T10:08:44.422Z,76.20
2019-05-17T10:11:25.613Z,76.00
2019-05-17T10:14:06.489Z,76.60
2019-05-17T10:16:46.408Z,76.60
2019-05-17T10:19:29.571Z,76.40
2019-05-17T10:22:13.694Z,76.60
2019-05-17T10:24:56.073Z,76.40
2019-05-17T10:27:40.761Z,75.80
2019-05-17T10:30:21.592Z,75.50
2019-05-17T10:33:05.645Z,75.60
2019-05-17T10:35:49.549Z,75.90
2019-05-17T10:38:32.760Z,76.30
2019-05-17T10:41:19.914Z,76.40
2019-05-17T10:44:05.414Z,76.50
2019-05-17T10:46:47.099Z,76.70
2019-05-17T10:49:44.736Z,76.60
2019-05-17T10:52:23.693Z,76.40
2019-05-17T10:55:12.039Z,76.60
2019-05-17T10:58:00.436Z,76.40
2019-05-17T11:00:41.505Z,77.10
2019-05-17T11:03:23.857Z,77.00
2019-05-17T11:06:06.838Z,77.10
2019-05-17T11:08:52.017Z,77.20
2019-05-17T11:11:36.153Z,77.10
2019-05-17T11:17:17.823Z,76.90
2019-05-17T11:20:00.046Z,76.30
2019-05-17T11:22:44.159Z,76.40
2019-05-17T11:25:45.330Z,76.10
2019-05-17T11:28:18.100Z,76.00
2019-05-17T11:31:00.509Z,76.10
2019-05-17T11:33:47.378Z,76.20
2019-05-17T11:36:30.177Z,76.30
2019-05-17T11:39:12.767Z,76.40
2019-05-17T11:41:55.532Z,76.60
2019-05-17T11:44:51.375Z,76.80
2019-05-17T11:47:37.920Z,75.70
2019-05-17T11:50:21.108Z,76.60
2019-05-17T11:53:08.586Z,77.10
2019-05-17T11:55:54.393Z,77.40
2019-05-17T11:58:34.806Z,77.30
2019-05-17T12:01:18.174Z,76.60
2019-05-17T12:03:58.566Z,76.70
2019-05-17T12:06:43.076Z,77.10
2019-05-17T12:09:37.525Z,77.20
2019-05-17T12:12:17.598Z,76.70
2019-05-17T12:15:02.036Z,76.30
2019-05-17T12:17:51.320Z,76.20
2019-05-17T12:20:34.755Z,75.80
2019-05-17T12:23:19.949Z,75.90
2019-05-17T12:26:01.297Z,75.90
2019-05-17T12:28:42.364Z,75.70
2019-05-17T12:31:25.289Z,75.40
2019-05-17T12:34:11.826Z,75.30
2019-05-17T12:36:56.475Z,75.40
2019-05-17T12:39:44.161Z,76.00
2019-05-17T12:42:26.518Z,76.20
2019-05-17T12:45:07.901Z,76.30
2019-05-17T12:47:51.699Z,76.80
2019-05-17T12:50:38.519Z,77.60
2019-05-17T12:53:23.669Z,78.70
2019-05-17T12:56:07.184Z,79.40
2019-05-17T12:58:53.132Z,80.20
2019-05-17T13:01:41.303Z,80.90
2019-05-17T13:04:28.831Z,81.60
2019-05-17T13:07:15.672Z,81.80
2019-05-17T13:09:58.002Z,82.40
2019-05-17T13:12:51.857Z,82.70
2019-05-17T13:15:35.395Z,82.10
2019-05-17T13:18:21.512Z,82.20
2019-05-17T13:21:07.184Z,82.30
2019-05-17T13:23:55.787Z,82.80
2019-05-17T13:26:39.486Z,82.40
2019-05-17T13:29:22.193Z,82.50
2019-05-17T13:32:05.507Z,82.30
2019-05-17T13:34:46.403Z,82.20
2019-05-17T13:37:34.417Z,82.90
2019-05-17T13:40:18.552Z,82.70
2019-05-17T13:43:24.392Z,83.00
2019-05-17T13:46:07.997Z,83.60
2019-05-17T13:49:03.485Z,83.50
2019-05-17T13:51:54.041Z,84.20
2019-05-17T13:54:42.406Z,84.40
2019-05-17T13:57:39.887Z,84.80
2019-05-17T14:00:32.276Z,84.90
2019-05-17T14:06:22.541Z,84.00
2019-05-17T14:09:13.002Z,83.70
2019-05-17T14:11:56.258Z,83.50
2019-05-17T14:14:37.850Z,83.40
2019-05-17T14:17:29.394Z,83.30
2019-05-17T14:20:13.316Z,83.60
2019-05-17T14:22:57.264Z,84.20
2019-05-17T14:25:44.670Z,83.80
2019-05-17T14:28:29.453Z,83.70
2019-05-17T14:31:31.378Z,83.90
2019-05-17T14:34:26.141Z,84.00
2019-05-17T14:37:14.574Z,84.00
2019-05-17T14:40:00.032Z,84.10
2019-05-17T14:42:47.421Z,83.70
2019-05-17T14:45:31.146Z,83.80
2019-05-17T14:48:20.025Z,84.30
2019-05-17T14:51:10.548Z,83.90
2019-05-17T14:54:07.990Z,84.20
2019-05-17T14:56:57.524Z,83.90
2019-05-17T14:59:46.909Z,82.90
2019-05-17T15:02:32.254Z,82.60
2019-05-17T15:05:31.326Z,83.50
2019-05-17T15:08:17.344Z,83.30
2019-05-17T15:11:10.804Z,83.10
2019-05-17T15:14:10.384Z,83.00
2019-05-17T15:17:16.162Z,83.20
2019-05-17T15:20:15.849Z,83.30
2019-05-17T15:23:11.102Z,83.30
2019-05-17T15:25:56.865Z,83.20
2019-05-17T15:28:45.307Z,83.50
2019-05-17T15:31:32.088Z,84.20
2019-05-17T15:34:21.855Z,84.30
2019-05-17T15:37:17.401Z,84.70
2019-05-17T15:43:17.788Z,85.10
2019-05-17T15:46:37.508Z,85.30
2019-05-17T15:49:34.820Z,85.40
2019-05-17T15:52:32.501Z,85.50
2019-05-17T15:55:19.634Z,84.50
2019-05-17T15:58:16.772Z,84.80
2019-05-17T16:01:21.753Z,84.60
2019-05-17T16:04:11.232Z,85.10
2019-05-17T16:06:55.124Z,85.00
2019-05-17T16:09:49.464Z,85.10
2019-05-17T16:12:35.869Z,85.40
2019-05-17T16:15:28.059Z,85.60
2019-05-17T16:18:11.883Z,85.60
2019-05-17T16:20:57.852Z,85.90
2019-05-17T16:23:48.634Z,85.90
2019-05-17T16:26:35.722Z,85.90
2019-05-17T16:29:24.583Z,86.00
2019-05-17T16:32:19.785Z,86.10
2019-05-17T16:35:09.200Z,86.20
2019-05-17T16:37:52.756Z,86.00
2019-05-17T16:40:41.864Z,85.00
2019-05-17T16:43:25.576Z,85.10
2019-05-17T16:46:18.265Z,85.50
2019-05-17T16:49:05.540Z,85.60
2019-05-17T16:51:48.850Z,85.60
2019-05-17T16:54:32.657Z,86.00
2019-05-17T16:57:23.390Z,86.20
2019-05-17T17:00:03.527Z,85.90
2019-05-17T17:02:53.334Z,85.70
2019-05-17T17:05:37.414Z,86.10
2019-05-17T17:08:17.782Z,85.10
2019-05-17T17:11:00.023Z,84.60
2019-05-17T17:13:42.783Z,85.50
2019-05-17T17:16:28.388Z,85.40
2019-05-17T17:19:10.582Z,85.60
2019-05-17T17:21:58.722Z,86.00
2019-05-17T17:24:43.236Z,86.10
2019-05-17T17:27:25.919Z,86.40
2019-05-17T17:30:22.053Z,86.10
2019-05-17T17:33:05.751Z,86.30
2019-05-17T17:35:48.105Z,86.10
2019-05-17T17:38:35.839Z,86.10
2019-05-17T17:41:19.379Z,85.90
2019-05-17T17:44:03.241Z,85.70
2019-05-17T17:46:48.909Z,85.80
2019-05-17T17:49:34.341Z,86.20
2019-05-17T17:52:17.143Z,86.60
2019-05-17T17:54:57.403Z,86.60
2019-05-17T17:57:41.472Z,86.40
2019-05-17T18:00:28.286Z,86.10
2019-05-17T18:03:16.834Z,86.30
2019-05-17T18:06:00.594Z,85.90
2019-05-17T18:08:46.942Z,85.90
2019-05-17T18:11:35.425Z,85.80
2019-05-17T18:14:38.873Z,85.70
2019-05-17T18:17:39.007Z,85.90
2019-05-17T18:20:16.670Z,85.70
2019-05-17T18:23:02.583Z,85.50
2019-05-17T18:25:50.815Z,85.00
2019-05-17T18:28:48.951Z,85.00
2019-05-17T18:31:33.280Z,85.00
2019-05-17T18:34:26.712Z,85.10
2019-05-17T18:37:11.095Z,84.70
2019-05-17T18:39:55.149Z,84.30
2019-05-17T18:45:37.111Z,84.70
2019-05-17T18:48:17.259Z,84.50
2019-05-17T18:50:56.498Z,84.80
2019-05-17T18:53:39.081Z,84.80
2019-05-17T18:56:23.137Z,84.30
2019-05-17T18:59:06.415Z,84.70
2019-05-17T19:01:51.330Z,84.20
2019-05-17T19:04:36.095Z,84.20
2019-05-17T19:07:18.069Z,83.50
2019-05-17T19:10:01.425Z,83.10
2019-05-17T19:12:45.168Z,83.50
2019-05-17T19:15:27.464Z,83.90
2019-05-17T19:18:07.071Z,83.80
2019-05-17T19:20:49.798Z,84.10
2019-05-17T19:23:31.752Z,84.40
2019-05-17T19:26:14.312Z,84.70
2019-05-17T19:28:59.382Z,84.10
2019-05-17T19:31:43.949Z,83.80
2019-05-17T19:34:27.806Z,83.90
2019-05-17T19:37:25.390Z,83.70
2019-05-17T19:40:09.855Z,83.80
2019-05-17T19:42:53.005Z,84.00
2019-05-17T19:45:34.711Z,83.90
2019-05-17T19:48:13.737Z,83.90
2019-05-17T19:53:53.760Z,84.30
2019-05-17T19:56:35.938Z,84.40
2019-05-17T19:59:16.154Z,84.60
2019-05-17T20:04:56.949Z,85.00
2019-05-17T20:07:39.575Z,84.60
2019-05-17T20:10:21.459Z,84.70
2019-05-17T20:13:03.616Z,85.10
2019-05-17T20:15:44.388Z,85.30
2019-05-17T20:18:29.490Z,84.90
2019-05-17T20:21:10.622Z,85.00
2019-05-17T20:23:53.729Z,85.20
2019-05-17T20:26:36.153Z,85.00
2019-05-17T20:29:15.819Z,84.60
2019-05-17T20:32:00.961Z,84.30
2019-05-17T20:34:43.145Z,84.50
2019-05-17T20:37:25.512Z,84.80
2019-05-17T20:40:09.802Z,85.00
2019-05-17T20:42:55.287Z,85.10
2019-05-17T20:45:36.945Z,85.00
2019-05-17T20:48:20.655Z,84.50
2019-05-17T20:51:14.620Z,84.30
2019-05-17T20:53:59.738Z,84.60
2019-05-17T20:56:45.129Z,84.50
2019-05-17T20:59:33.205Z,84.50
2019-05-17T21:02:15.732Z,83.80
2019-05-17T21:05:01.538Z,83.90
2019-05-17T21:07:41.431Z,84.10
2019-05-17T21:10:25.519Z,84.30
2019-05-17T21:13:07.637Z,84.40
2019-05-17T21:15:51.044Z,84.30
2019-05-17T21:18:34.801Z,84.40
2019-05-17T21:21:28.066Z,83.90
2019-05-17T21:24:11.963Z,83.30
2019-05-17T21:26:54.131Z,83.00
2019-05-17T21:29:39.871Z,83.10
2019-05-17T21:32:24.346Z,83.20
2019-05-17T21:35:12.485Z,83.70
2019-05-17T21:37:56.958Z,83.70
2019-05-17T21:40:40.284Z,83.90
2019-05-17T21:43:25.656Z,84.00
2019-05-17T21:46:07.224Z,84.00
2019-05-17T21:48:50.723Z,84.00
2019-05-17T21:51:31.649Z,84.20
2019-05-17T21:54:12.394Z,84.10
2019-05-17T21:56:55.544Z,84.30
2019-05-17T21:59:37.152Z,83.80
2019-05-17T22:02:22.223Z,83.50
2019-05-17T22:05:23.521Z,83.50
2019-05-17T22:08:05.998Z,84.00
2019-05-17T22:10:48.209Z,84.00
2019-05-17T22:13:29.383Z,84.00
2019-05-17T22:16:18.954Z,84.10
2019-05-17T22:18:54.894Z,84.30
2019-05-17T22:21:42.560Z,84.70
2019-05-17T22:24:27.436Z,84.00
2019-05-17T22:27:15.875Z,84.00
2019-05-17T22:29:57.086Z,83.40
2019-05-17T22:32:38.552Z,82.70
2019-05-17T22:35:23.543Z,82.80
2019-05-17T22:38:06.524Z,82.90
2019-05-17T22:40:49.602Z,82.90
2019-05-17T22:43:32.193Z,82.60
2019-05-17T22:46:17.562Z,83.00
2019-05-17T22:49:04.751Z,83.10
2019-05-17T22:51:48.363Z,83.20
2019-05-17T22:54:30.315Z,83.20
2019-05-17T22:57:14.816Z,83.10
2019-05-17T22:59:57.060Z,82.20
2019-05-17T23:02:41.898Z,82.00
2019-05-17T23:05:25.939Z,82.40
2019-05-17T23:08:07.234Z,82.40
2019-05-17T23:10:48.014Z,82.90
2019-05-17T23:13:31.144Z,83.00
2019-05-17T23:16:12.994Z,82.50
2019-05-17T23:19:17.092Z,82.90
2019-05-17T23:22:00.201Z,82.70
2019-05-17T23:24:42.632Z,82.00
2019-05-17T23:27:27.710Z,81.50
2019-05-17T23:30:18.091Z,81.00
2019-05-17T23:33:00.427Z,80.60
2019-05-17T23:35:41.091Z,80.70
2019-05-17T23:38:24.109Z,81.00
2019-05-17T23:41:10.107Z,81.40
2019-05-17T23:43:50.825Z,81.40
2019-05-17T23:46:33.101Z,81.40
2019-05-17T23:49:20.345Z,81.50
2019-05-17T23:52:02.898Z,82.00
2019-05-17T23:54:46.417Z,82.60
2019-05-17T23:57:30.984Z,81.80
